Homer City, PA

9:45 PM EDT on August 25, 2016 (GMT -0400)
Ridgekid | | Change Station
Active Advisory: Severe Thunderstorm Warning

Elev 2034 ft 40.50 °N, 79.01 °W | Updated 21 seconds ago

Mostly Cloudy
Mostly Cloudy
75.2 °F
Feels Like 74 °F
N
2.2
Wind Variable Wind from West
Gusts 3.8 mph

Today
High -- | Low -- °F
--% Chance of Precip.
Yesterday
High -- | Low -- °F
Precip. -- in
Pressure 30.05 in
Visibility 10.0 miles
Clouds Few 2700 ft
Scattered Clouds 4500 ft
Mostly Cloudy 5000 ft
Heat Index 74 °F
Dew Point 72 °F
Humidity 90%
Rainfall 0.00 in
Snow Depth Not available.
6:36 AM 7:58 PM
Last Quarter, 40% visible
METAR KIDI 260135Z AUTO 22007KT 10SM FEW027 SCT045 BKN050 26/23 A3005 RMK A01
Pressure 30.05 in
Visibility 10.0 miles
Clouds Few 2700 ft
Scattered Clouds 4500 ft
Mostly Cloudy 5000 ft
Heat Index 74 °F
Dew Point 72 °F
Humidity 90%
Rainfall 0.00 in
Snow Depth Not available.
6:36 AM 7:58 PM
Last Quarter, 40% visible
METAR KIDI 260135Z AUTO 22007KT 10SM FEW027 SCT045 BKN050 26/23 A3005 RMK A01
A tropical disturbance pushing toward the Bahamas, is expected to develop into a tropical depression or storm, and will likely target Florida and the Gulf Coast this weekend into next week.

Right now, the disturbance remains a broad area of low pressure pushing through the Dominican Republic and Haiti, headed toward the southeast Bahamas. Rainfall totals over 3 inches (with locally higher amounts) are expected in HispaƱiola, particularly over elevated terrain.

10-Day Weather Forecast

Almanac

Astronomy

Aug. 25, 2016 Rise Set
Actual Time
Civil Twilight
Nautical Twilight
Astronomical Twilight
Moon
Length of Visible Light
Length of Day
Tomorrow will be .
, % of the Moon is Illuminated

Today's Extremes

State Highs State Lows

Community

WunderPhotos

Upload Photos

1,935,017 photos uploaded!

WunderBlog® & News

Nearby

Air Quality

  Air Quality AQ Index Pollutant
Not available.

Snow Depth

Station Depth Elevation

Earthquake Activity

City Distance Mag. Time & Date
Minimum magnitude displayed is 2.5.

Coastal Water Temperatures

Place Temperature

Stations

Nearby Weather Stations

Station Location Temp. Windchill Dew Point Humidity Wind Precip. Elev Updated Type
                   

Watches & Warnings

Severe Thunderstorm Warning
Issued: 9:37 PM EDT Aug. 25, 2016 – National Weather Service

... The Severe Thunderstorm Warning for North Central Indiana... east
central Armstrong and southeastern Clarion counties is cancelled...

the severe thunderstorm which prompted the warning has moved out of
the warned area. Therefore... the warning has been cancelled.

Lat... Lon 4094 7900 4095 7921 4105 7921 4105 7922
      4108 7921 4113 7921 4108 7892
time... Mot... loc 0136z 277deg 20kt 4106 7916